sensor_id;sensor_type;location;lat;lon;timestamp;pressure;altitude;pressure_sealevel;temperature;humidity
17209;BME280;8720;48.488;9.202;2022-08-01T00:02:27;97102.88;;;26.00;37.34
17209;BME280;8720;48.488;9.202;2022-08-01T00:04:56;97099.88;;;25.93;37.31
17209;BME280;8720;48.488;9.202;2022-08-01T00:07:23;97093.28;;;25.86;37.55
17209;BME280;8720;48.488;9.202;2022-08-01T00:09:50;97093.09;;;25.78;37.68
17209;BME280;8720;48.488;9.202;2022-08-01T00:12:18;97092.50;;;25.75;38.31
17209;BME280;8720;48.488;9.202;2022-08-01T00:14:45;97102.63;;;25.71;37.85
17209;BME280;8720;48.488;9.202;2022-08-01T00:17:12;97094.94;;;25.67;38.05
17209;BME280;8720;48.488;9.202;2022-08-01T00:19:40;97097.44;;;25.59;37.95
17209;BME280;8720;48.488;9.202;2022-08-01T00:22:08;97106.94;;;25.52;38.72
17209;BME280;8720;48.488;9.202;2022-08-01T00:24:35;97100.41;;;25.45;38.55
17209;BME280;8720;48.488;9.202;2022-08-01T00:27:03;97101.75;;;25.39;38.67
17209;BME280;8720;48.488;9.202;2022-08-01T00:29:30;97103.91;;;25.34;38.79
17209;BME280;8720;48.488;9.202;2022-08-01T00:31:57;97110.63;;;25.29;38.95
17209;BME280;8720;48.488;9.202;2022-08-01T00:34:25;97111.84;;;25.24;38.99
17209;BME280;8720;48.488;9.202;2022-08-01T00:36:52;97113.19;;;25.19;38.97
17209;BME280;8720;48.488;9.202;2022-08-01T00:39:21;97113.59;;;25.14;39.08
17209;BME280;8720;48.488;9.202;2022-08-01T00:41:48;97099.81;;;25.08;39.08
17209;BME280;8720;48.488;9.202;2022-08-01T00:44:15;97108.94;;;25.05;39.13
17209;BME280;8720;48.488;9.202;2022-08-01T00:46:43;97099.72;;;24.98;38.74
17209;BME280;8720;48.488;9.202;2022-08-01T00:49:10;97114.06;;;24.97;38.83
17209;BME280;8720;48.488;9.202;2022-08-01T00:51:40;97114.44;;;24.93;38.76
17209;BME280;8720;48.488;9.202;2022-08-01T00:54:07;97115.41;;;24.92;39.23
17209;BME280;8720;48.488;9.202;2022-08-01T00:56:36;97095.22;;;24.77;39.31
17209;BME280;8720;48.488;9.202;2022-08-01T00:59:04;97111.75;;;24.82;39.49
17209;BME280;8720;48.488;9.202;2022-08-01T01:01:31;97119.28;;;24.77;39.78
17209;BME280;8720;48.488;9.202;2022-08-01T01:03:58;97107.34;;;24.70;39.71
17209;BME280;8720;48.488;9.202;2022-08-01T01:06:39;97108.56;;;24.66;39.85
17209;BME280;8720;48.488;9.202;2022-08-01T01:09:23;97114.38;;;24.60;40.36
17209;BME280;8720;48.488;9.202;2022-08-01T01:12:15;97108.66;;;24.53;40.03
17209;BME280;8720;48.488;9.202;2022-08-01T01:14:56;97113.28;;;24.51;40.26
17209;BME280;8720;48.488;9.202;2022-08-01T01:17:35;97112.78;;;24.46;40.73
17209;BME280;8720;48.488;9.202;2022-08-01T01:20:07;97120.81;;;24.46;40.57
17209;BME280;8720;48.488;9.202;2022-08-01T01:23:05;97131.13;;;24.40;40.78
17209;BME280;8720;48.488;9.202;2022-08-01T01:26:00;97126.38;;;24.32;40.77
17209;BME280;8720;48.488;9.202;2022-08-01T01:28:37;97128.22;;;24.31;41.21
17209;BME280;8720;48.488;9.202;2022-08-01T01:31:11;97125.75;;;24.28;41.45
17209;BME280;8720;48.488;9.202;2022-08-01T01:33:41;97116.50;;;24.21;41.38
17209;BME280;8720;48.488;9.202;2022-08-01T01:36:11;97126.59;;;24.18;41.53
17209;BME280;8720;48.488;9.202;2022-08-01T01:38:44;97130.47;;;24.14;41.64
17209;BME280;8720;48.488;9.202;2022-08-01T01:41:15;97135.28;;;24.09;41.96
17209;BME280;8720;48.488;9.202;2022-08-01T01:43:46;97135.66;;;24.04;42.08
17209;BME280;8720;48.488;9.202;2022-08-01T01:46:19;97137.66;;;24.01;42.23
17209;BME280;8720;48.488;9.202;2022-08-01T01:48:50;97128.19;;;23.97;42.07
17209;BME280;8720;48.488;9.202;2022-08-01T01:51:22;97127.91;;;23.89;42.14
17209;BME280;8720;48.488;9.202;2022-08-01T01:53:52;97126.06;;;23.89;42.18
17209;BME280;8720;48.488;9.202;2022-08-01T01:56:21;97131.03;;;23.83;42.23
17209;BME280;8720;48.488;9.202;2022-08-01T01:58:53;97132.72;;;23.84;42.84
17209;BME280;8720;48.488;9.202;2022-08-01T02:03:59;97131.75;;;23.74;42.51
17209;BME280;8720;48.488;9.202;2022-08-01T02:06:31;97130.25;;;23.70;42.66
17209;BME280;8720;48.488;9.202;2022-08-01T02:09:01;97131.44;;;23.66;42.66
17209;BME280;8720;48.488;9.202;2022-08-01T02:11:30;97134.22;;;23.64;42.81
17209;BME280;8720;48.488;9.202;2022-08-01T02:14:01;97129.97;;;23.62;42.89
17209;BME280;8720;48.488;9.202;2022-08-01T02:16:35;97132.97;;;23.57;42.71
17209;BME280;8720;48.488;9.202;2022-08-01T02:19:04;97140.38;;;23.54;42.98
17209;BME280;8720;48.488;9.202;2022-08-01T02:21:38;97137.81;;;23.52;42.69
17209;BME280;8720;48.488;9.202;2022-08-01T02:24:13;97138.88;;;23.50;42.83
17209;BME280;8720;48.488;9.202;2022-08-01T02:26:47;97142.53;;;23.49;43.13
17209;BME280;8720;48.488;9.202;2022-08-01T02:29:24;97137.41;;;23.45;43.31
17209;BME280;8720;48.488;9.202;2022-08-01T02:31:55;97141.25;;;23.41;43.09
17209;BME280;8720;48.488;9.202;2022-08-01T02:34:28;97148.63;;;23.38;43.08
17209;BME280;8720;48.488;9.202;2022-08-01T02:36:59;97143.28;;;23.38;43.11
17209;BME280;8720;48.488;9.202;2022-08-01T02:39:30;97143.41;;;23.36;43.34
17209;BME280;8720;48.488;9.202;2022-08-01T02:42:06;97147.16;;;23.34;43.36
17209;BME280;8720;48.488;9.202;2022-08-01T02:44:38;97141.94;;;23.32;43.29
17209;BME280;8720;48.488;9.202;2022-08-01T02:47:06;97145.63;;;23.30;43.15
17209;BME280;8720;48.488;9.202;2022-08-01T02:49:42;97148.41;;;23.28;43.19
17209;BME280;8720;48.488;9.202;2022-08-01T02:52:14;97141.47;;;23.26;43.71
17209;BME280;8720;48.488;9.202;2022-08-01T02:54:44;97142.56;;;23.23;43.26
17209;BME280;8720;48.488;9.202;2022-08-01T02:57:13;97133.81;;;23.21;43.44
17209;BME280;8720;48.488;9.202;2022-08-01T02:59:43;97139.38;;;23.18;44.15
17209;BME280;8720;48.488;9.202;2022-08-01T03:02:12;97138.63;;;23.16;43.89
17209;BME280;8720;48.488;9.202;2022-08-01T03:04:43;97139.47;;;23.17;43.85
17209;BME280;8720;48.488;9.202;2022-08-01T03:07:12;97136.06;;;23.15;43.70
17209;BME280;8720;48.488;9.202;2022-08-01T03:09:43;97132.78;;;23.11;43.60
17209;BME280;8720;48.488;9.202;2022-08-01T03:12:16;97131.91;;;23.11;44.20
17209;BME280;8720;48.488;9.202;2022-08-01T03:14:46;97139.41;;;23.06;43.80
17209;BME280;8720;48.488;9.202;2022-08-01T03:17:16;97138.66;;;23.04;44.62
17209;BME280;8720;48.488;9.202;2022-08-01T03:19:48;97140.47;;;23.03;44.28
17209;BME280;8720;48.488;9.202;2022-08-01T03:22:17;97140.72;;;23.00;44.23
17209;BME280;8720;48.488;9.202;2022-08-01T03:24:50;97134.50;;;23.00;43.93
17209;BME280;8720;48.488;9.202;2022-08-01T03:27:21;97133.88;;;22.96;44.48
17209;BME280;8720;48.488;9.202;2022-08-01T03:29:51;97143.69;;;22.96;44.10
17209;BME280;8720;48.488;9.202;2022-08-01T03:32:21;97135.81;;;22.94;44.27
17209;BME280;8720;48.488;9.202;2022-08-01T03:34:50;97139.41;;;22.93;44.22
17209;BME280;8720;48.488;9.202;2022-08-01T03:37:24;97140.50;;;22.91;44.51
17209;BME280;8720;48.488;9.202;2022-08-01T03:39:58;97142.44;;;22.89;44.33
17209;BME280;8720;48.488;9.202;2022-08-01T03:42:33;97136.34;;;22.87;44.15
17209;BME280;8720;48.488;9.202;2022-08-01T03:45:07;97142.97;;;22.81;44.72
17209;BME280;8720;48.488;9.202;2022-08-01T03:47:36;97142.88;;;22.83;44.91
17209;BME280;8720;48.488;9.202;2022-08-01T03:50:08;97149.25;;;22.80;44.75
17209;BME280;8720;48.488;9.202;2022-08-01T03:52:39;97143.19;;;22.78;44.83
17209;BME280;8720;48.488;9.202;2022-08-01T03:55:11;97146.06;;;22.75;45.22
17209;BME280;8720;48.488;9.202;2022-08-01T03:57:40;97142.66;;;22.73;44.87
17209;BME280;8720;48.488;9.202;2022-08-01T04:00:10;97151.59;;;22.72;45.14
17209;BME280;8720;48.488;9.202;2022-08-01T04:02:42;97146.38;;;22.71;45.20
17209;BME280;8720;48.488;9.202;2022-08-01T04:05:11;97146.50;;;22.69;45.10
17209;BME280;8720;48.488;9.202;2022-08-01T04:07:38;97143.09;;;22.67;45.10
17209;BME280;8720;48.488;9.202;2022-08-01T04:10:09;97152.03;;;22.66;45.42
17209;BME280;8720;48.488;9.202;2022-08-01T04:12:36;97154.81;;;22.65;45.43
17209;BME280;8720;48.488;9.202;2022-08-01T04:15:05;97154.19;;;22.61;45.62
17209;BME280;8720;48.488;9.202;2022-08-01T04:17:33;97160.44;;;22.60;45.80
17209;BME280;8720;48.488;9.202;2022-08-01T04:20:00;97157.91;;;22.58;46.04
17209;BME280;8720;48.488;9.202;2022-08-01T04:22:29;97156.22;;;22.58;45.79
17209;BME280;8720;48.488;9.202;2022-08-01T04:25:00;97166.97;;;22.56;46.00
17209;BME280;8720;48.488;9.202;2022-08-01T04:27:37;97170.56;;;22.55;45.74
17209;BME280;8720;48.488;9.202;2022-08-01T04:30:07;97169.81;;;22.53;45.86
17209;BME280;8720;48.488;9.202;2022-08-01T04:32:38;97172.28;;;22.56;46.18
17209;BME280;8720;48.488;9.202;2022-08-01T04:35:11;97167.81;;;22.56;45.93
17209;BME280;8720;48.488;9.202;2022-08-01T04:37:42;97173.06;;;22.58;45.82
17209;BME280;8720;48.488;9.202;2022-08-01T04:40:12;97169.53;;;22.58;46.30
17209;BME280;8720;48.488;9.202;2022-08-01T04:42:40;97170.41;;;22.58;46.24
17209;BME280;8720;48.488;9.202;2022-08-01T04:45:08;97171.13;;;22.60;45.99
17209;BME280;8720;48.488;9.202;2022-08-01T04:47:37;97171.22;;;22.58;45.88
17209;BME280;8720;48.488;9.202;2022-08-01T04:50:08;97183.09;;;22.67;46.08
17209;BME280;8720;48.488;9.202;2022-08-01T04:52:37;97182.03;;;22.70;45.81
17209;BME280;8720;48.488;9.202;2022-08-01T04:55:07;97179.38;;;22.70;46.03
17209;BME280;8720;48.488;9.202;2022-08-01T04:57:37;97189.69;;;22.74;46.41
17209;BME280;8720;48.488;9.202;2022-08-01T05:00:06;97178.38;;;22.83;46.42
17209;BME280;8720;48.488;9.202;2022-08-01T05:02:34;97186.63;;;22.93;46.21
17209;BME280;8720;48.488;9.202;2022-08-01T05:05:01;97184.91;;;23.04;46.30
17209;BME280;8720;48.488;9.202;2022-08-01T05:07:28;97184.88;;;23.17;46.00
17209;BME280;8720;48.488;9.202;2022-08-01T05:09:55;97185.06;;;23.39;46.38
17209;BME280;8720;48.488;9.202;2022-08-01T05:12:24;97179.31;;;23.92;46.56
17209;BME280;8720;48.488;9.202;2022-08-01T05:14:51;97177.00;;;24.57;46.18
17209;BME280;8720;48.488;9.202;2022-08-01T05:17:18;97184.25;;;25.34;45.23
17209;BME280;8720;48.488;9.202;2022-08-01T05:19:46;97176.91;;;26.23;44.80
17209;BME280;8720;48.488;9.202;2022-08-01T05:22:14;97180.69;;;27.24;43.59
17209;BME280;8720;48.488;9.202;2022-08-01T05:24:41;97177.72;;;28.25;42.11
17209;BME280;8720;48.488;9.202;2022-08-01T05:27:08;97173.66;;;29.25;40.41
17209;BME280;8720;48.488;9.202;2022-08-01T05:29:37;97169.78;;;30.09;39.37
17209;BME280;8720;48.488;9.202;2022-08-01T05:32:05;97173.81;;;30.58;37.96
17209;BME280;8720;48.488;9.202;2022-08-01T05:34:32;97167.00;;;30.89;37.25
17209;BME280;8720;48.488;9.202;2022-08-01T05:37:00;97169.78;;;31.05;36.56
17209;BME280;8720;48.488;9.202;2022-08-01T05:39:27;97174.75;;;31.09;35.96
17209;BME280;8720;48.488;9.202;2022-08-01T05:41:54;97171.50;;;31.06;35.67
17209;BME280;8720;48.488;9.202;2022-08-01T05:44:21;97168.06;;;30.96;35.74
17209;BME280;8720;48.488;9.202;2022-08-01T05:46:50;97168.00;;;30.88;35.66
17209;BME280;8720;48.488;9.202;2022-08-01T05:49:17;97181.56;;;30.78;35.55
17209;BME280;8720;48.488;9.202;2022-08-01T05:51:45;97173.03;;;30.65;35.62
17209;BME280;8720;48.488;9.202;2022-08-01T05:54:12;97174.13;;;30.55;35.51
17209;BME280;8720;48.488;9.202;2022-08-01T05:56:39;97170.00;;;30.42;36.19
17209;BME280;8720;48.488;9.202;2022-08-01T05:59:07;97173.91;;;30.30;36.27
17209;BME280;8720;48.488;9.202;2022-08-01T06:01:34;97178.50;;;30.20;35.98
17209;BME280;8720;48.488;9.202;2022-08-01T06:04:03;97172.88;;;30.14;36.49
17209;BME280;8720;48.488;9.202;2022-08-01T06:06:30;97174.56;;;30.15;36.14
17209;BME280;8720;48.488;9.202;2022-08-01T06:08:58;97168.56;;;30.21;36.37
17209;BME280;8720;48.488;9.202;2022-08-01T06:11:25;97171.09;;;30.22;36.27
17209;BME280;8720;48.488;9.202;2022-08-01T06:13:52;97164.03;;;30.21;36.04
17209;BME280;8720;48.488;9.202;2022-08-01T06:16:19;97172.25;;;30.20;36.48
17209;BME280;8720;48.488;9.202;2022-08-01T06:18:47;97171.59;;;30.18;36.20
17209;BME280;8720;48.488;9.202;2022-08-01T06:21:15;97172.56;;;30.17;36.83
17209;BME280;8720;48.488;9.202;2022-08-01T06:23:43;97162.91;;;30.14;36.76
17209;BME280;8720;48.488;9.202;2022-08-01T06:26:10;97174.41;;;30.16;36.79
17209;BME280;8720;48.488;9.202;2022-08-01T06:28:39;97174.56;;;30.15;36.43
17209;BME280;8720;48.488;9.202;2022-08-01T06:31:06;97176.28;;;30.16;36.36
17209;BME280;8720;48.488;9.202;2022-08-01T06:33:35;97178.13;;;30.15;36.44
17209;BME280;8720;48.488;9.202;2022-08-01T06:36:03;97172.56;;;30.17;36.64
17209;BME280;8720;48.488;9.202;2022-08-01T06:38:32;97167.53;;;30.22;36.47
17209;BME280;8720;48.488;9.202;2022-08-01T06:40:59;97170.53;;;30.28;36.78
17209;BME280;8720;48.488;9.202;2022-08-01T06:43:27;97172.00;;;30.40;36.46
17209;BME280;8720;48.488;9.202;2022-08-01T06:45:54;97167.03;;;30.54;36.69
17209;BME280;8720;48.488;9.202;2022-08-01T06:48:21;97168.50;;;30.66;35.96
17209;BME280;8720;48.488;9.202;2022-08-01T06:50:48;97176.97;;;30.71;35.96
17209;BME280;8720;48.488;9.202;2022-08-01T06:53:35;97172.63;;;30.78;35.94
17209;BME280;8720;48.488;9.202;2022-08-01T06:56:04;97170.69;;;30.88;35.63
17209;BME280;8720;48.488;9.202;2022-08-01T06:58:32;97161.50;;;30.98;35.59
17209;BME280;8720;48.488;9.202;2022-08-01T07:01:00;97164.16;;;31.16;35.51
17209;BME280;8720;48.488;9.202;2022-08-01T07:03:27;97165.44;;;31.38;34.99
17209;BME280;8720;48.488;9.202;2022-08-01T07:05:54;97165.09;;;31.66;34.92
17209;BME280;8720;48.488;9.202;2022-08-01T07:08:21;97161.59;;;31.90;34.62
17209;BME280;8720;48.488;9.202;2022-08-01T07:10:50;97168.47;;;32.10;34.25
17209;BME280;8720;48.488;9.202;2022-08-01T07:13:17;97164.28;;;32.32;33.94
17209;BME280;8720;48.488;9.202;2022-08-01T07:15:47;97160.59;;;32.57;33.66
17209;BME280;8720;48.488;9.202;2022-08-01T07:18:14;97163.09;;;32.90;33.52
17209;BME280;8720;48.488;9.202;2022-08-01T07:20:41;97165.94;;;33.37;33.22
17209;BME280;8720;48.488;9.202;2022-08-01T07:23:09;97162.34;;;33.91;32.82
17209;BME280;8720;48.488;9.202;2022-08-01T07:25:36;97157.94;;;34.52;31.84
17209;BME280;8720;48.488;9.202;2022-08-01T07:28:05;97154.06;;;35.06;31.36
17209;BME280;8720;48.488;9.202;2022-08-01T07:30:32;97160.78;;;35.62;30.76
17209;BME280;8720;48.488;9.202;2022-08-01T07:33:00;97162.44;;;36.07;30.28
17209;BME280;8720;48.488;9.202;2022-08-01T07:35:27;97152.84;;;36.46;29.72
17209;BME280;8720;48.488;9.202;2022-08-01T07:37:54;97156.34;;;36.83;28.99
17209;BME280;8720;48.488;9.202;2022-08-01T07:40:22;97154.75;;;37.16;28.59
17209;BME280;8720;48.488;9.202;2022-08-01T07:42:49;97150.56;;;37.48;28.32
17209;BME280;8720;48.488;9.202;2022-08-01T07:45:18;97153.91;;;37.77;28.04
17209;BME280;8720;48.488;9.202;2022-08-01T07:47:46;97148.53;;;38.03;27.80
17209;BME280;8720;48.488;9.202;2022-08-01T07:50:16;97144.88;;;38.24;27.12
17209;BME280;8720;48.488;9.202;2022-08-01T07:52:43;97148.50;;;38.38;26.99
17209;BME280;8720;48.488;9.202;2022-08-01T07:55:11;97144.69;;;38.39;26.78
17209;BME280;8720;48.488;9.202;2022-08-01T07:57:39;97148.91;;;38.41;26.50
17209;BME280;8720;48.488;9.202;2022-08-01T08:00:07;97142.59;;;38.41;26.61
17209;BME280;8720;48.488;9.202;2022-08-01T08:02:39;97152.47;;;38.42;26.52
17209;BME280;8720;48.488;9.202;2022-08-01T08:05:07;97149.13;;;38.46;26.38
17209;BME280;8720;48.488;9.202;2022-08-01T08:07:35;97141.38;;;38.56;26.18
17209;BME280;8720;48.488;9.202;2022-08-01T08:10:03;97143.72;;;38.66;26.06
17209;BME280;8720;48.488;9.202;2022-08-01T08:12:31;97142.66;;;38.73;25.38
17209;BME280;8720;48.488;9.202;2022-08-01T08:14:58;97142.88;;;38.85;25.40
17209;BME280;8720;48.488;9.202;2022-08-01T08:17:27;97143.72;;;38.98;25.60
17209;BME280;8720;48.488;9.202;2022-08-01T08:19:56;97138.88;;;39.00;24.58
17209;BME280;8720;48.488;9.202;2022-08-01T08:22:23;97138.25;;;38.98;25.08
17209;BME280;8720;48.488;9.202;2022-08-01T08:24:50;97139.53;;;38.89;24.90
17209;BME280;8720;48.488;9.202;2022-08-01T08:27:18;97140.16;;;38.72;24.82
17209;BME280;8720;48.488;9.202;2022-08-01T08:29:45;97146.16;;;38.48;24.89
17209;BME280;8720;48.488;9.202;2022-08-01T08:32:12;97140.25;;;38.31;24.65
17209;BME280;8720;48.488;9.202;2022-08-01T08:34:40;97137.66;;;38.10;25.54
17209;BME280;8720;48.488;9.202;2022-08-01T08:37:09;97148.09;;;37.93;25.39
17209;BME280;8720;48.488;9.202;2022-08-01T08:39:37;97136.66;;;37.77;25.60
17209;BME280;8720;48.488;9.202;2022-08-01T08:42:07;97140.81;;;37.73;25.54
17209;BME280;8720;48.488;9.202;2022-08-01T08:44:34;97136.59;;;37.70;25.78
17209;BME280;8720;48.488;9.202;2022-08-01T08:47:03;97137.53;;;37.77;25.57
17209;BME280;8720;48.488;9.202;2022-08-01T08:49:32;97144.66;;;37.78;25.58
17209;BME280;8720;48.488;9.202;2022-08-01T08:52:01;97139.78;;;37.74;25.74
17209;BME280;8720;48.488;9.202;2022-08-01T08:54:33;97136.31;;;37.59;25.97
17209;BME280;8720;48.488;9.202;2022-08-01T08:57:02;97146.31;;;37.39;25.69
17209;BME280;8720;48.488;9.202;2022-08-01T08:59:31;97137.97;;;37.19;25.77
17209;BME280;8720;48.488;9.202;2022-08-01T09:01:59;97141.16;;;36.95;26.28
17209;BME280;8720;48.488;9.202;2022-08-01T09:04:27;97144.91;;;36.73;26.37
17209;BME280;8720;48.488;9.202;2022-08-01T09:06:54;97142.84;;;36.54;26.54
17209;BME280;8720;48.488;9.202;2022-08-01T09:09:22;97139.34;;;36.38;27.13
17209;BME280;8720;48.488;9.202;2022-08-01T09:11:50;97143.78;;;36.25;27.08
17209;BME280;8720;48.488;9.202;2022-08-01T09:14:19;97138.19;;;36.12;27.16
17209;BME280;8720;48.488;9.202;2022-08-01T09:17:01;97144.78;;;36.03;27.40
17209;BME280;8720;48.488;9.202;2022-08-01T09:19:36;97141.78;;;35.98;27.18
17209;BME280;8720;48.488;9.202;2022-08-01T09:22:07;97138.78;;;35.93;27.36
17209;BME280;8720;48.488;9.202;2022-08-01T09:24:36;97138.13;;;35.91;27.61
17209;BME280;8720;48.488;9.202;2022-08-01T09:27:19;97141.59;;;35.85;27.43
17209;BME280;8720;48.488;9.202;2022-08-01T09:29:46;97137.78;;;35.79;27.35
17209;BME280;8720;48.488;9.202;2022-08-01T09:32:14;97143.97;;;35.73;27.27
17209;BME280;8720;48.488;9.202;2022-08-01T09:34:41;97143.69;;;35.68;27.69
17209;BME280;8720;48.488;9.202;2022-08-01T09:37:08;97133.19;;;35.65;27.85
17209;BME280;8720;48.488;9.202;2022-08-01T09:39:38;97136.66;;;35.59;27.78
17209;BME280;8720;48.488;9.202;2022-08-01T09:42:24;97136.75;;;35.51;27.90
17209;BME280;8720;48.488;9.202;2022-08-01T09:44:52;97140.22;;;35.45;27.41
17209;BME280;8720;48.488;9.202;2022-08-01T09:47:20;97134.09;;;35.28;27.69
17209;BME280;8720;48.488;9.202;2022-08-01T09:49:56;97126.31;;;35.11;27.68
17209;BME280;8720;48.488;9.202;2022-08-01T09:52:27;97120.28;;;35.01;27.95
17209;BME280;8720;48.488;9.202;2022-08-01T09:54:57;97110.63;;;34.98;28.11
17209;BME280;8720;48.488;9.202;2022-08-01T09:57:28;97121.84;;;34.95;28.29
17209;BME280;8720;48.488;9.202;2022-08-01T09:59:59;97122.22;;;34.92;28.39
17209;BME280;8720;48.488;9.202;2022-08-01T10:02:31;97117.13;;;34.89;28.00
17209;BME280;8720;48.488;9.202;2022-08-01T10:05:00;97113.16;;;34.77;27.85
17209;BME280;8720;48.488;9.202;2022-08-01T10:07:28;97113.75;;;34.72;28.13
17209;BME280;8720;48.488;9.202;2022-08-01T10:09:55;97108.38;;;34.64;28.39
17209;BME280;8720;48.488;9.202;2022-08-01T10:12:23;97104.06;;;34.55;27.92
17209;BME280;8720;48.488;9.202;2022-08-01T10:14:52;97100.03;;;34.43;28.43
17209;BME280;8720;48.488;9.202;2022-08-01T10:17:25;97098.91;;;34.38;28.44
17209;BME280;8720;48.488;9.202;2022-08-01T10:19:53;97093.00;;;34.34;28.40
17209;BME280;8720;48.488;9.202;2022-08-01T10:22:24;97094.00;;;34.33;28.54
17209;BME280;8720;48.488;9.202;2022-08-01T10:24:56;97084.66;;;34.36;28.75
17209;BME280;8720;48.488;9.202;2022-08-01T10:27:26;97081.06;;;34.35;28.56
17209;BME280;8720;48.488;9.202;2022-08-01T10:29:58;97085.31;;;34.38;28.52
17209;BME280;8720;48.488;9.202;2022-08-01T10:32:30;97059.53;;;34.34;28.59
17209;BME280;8720;48.488;9.202;2022-08-01T10:34:58;97068.94;;;34.46;28.21
17209;BME280;8720;48.488;9.202;2022-08-01T10:37:27;97069.66;;;34.40;28.85
17209;BME280;8720;48.488;9.202;2022-08-01T10:39:55;97074.13;;;34.33;29.29
17209;BME280;8720;48.488;9.202;2022-08-01T10:42:22;97077.59;;;34.27;28.67
17209;BME280;8720;48.488;9.202;2022-08-01T10:44:51;97069.38;;;34.12;29.13
17209;BME280;8720;48.488;9.202;2022-08-01T10:47:29;97075.75;;;33.97;29.06
17209;BME280;8720;48.488;9.202;2022-08-01T10:50:07;97075.00;;;33.80;28.93
17209;BME280;8720;48.488;9.202;2022-08-01T10:52:38;97081.69;;;33.69;29.18
17209;BME280;8720;48.488;9.202;2022-08-01T10:55:08;97081.91;;;33.60;29.60
17209;BME280;8720;48.488;9.202;2022-08-01T10:57:47;97078.75;;;33.48;29.56
17209;BME280;8720;48.488;9.202;2022-08-01T11:00:17;97078.22;;;33.45;29.27
17209;BME280;8720;48.488;9.202;2022-08-01T11:03:00;97068.75;;;33.41;29.79
17209;BME280;8720;48.488;9.202;2022-08-01T11:05:33;97069.94;;;33.38;29.48
17209;BME280;8720;48.488;9.202;2022-08-01T11:08:07;97067.88;;;33.40;29.95
17209;BME280;8720;48.488;9.202;2022-08-01T11:10:39;97067.56;;;33.43;30.18
17209;BME280;8720;48.488;9.202;2022-08-01T11:13:09;97067.19;;;33.46;29.68
17209;BME280;8720;48.488;9.202;2022-08-01T11:15:38;97061.59;;;33.48;29.67
17209;BME280;8720;48.488;9.202;2022-08-01T11:18:31;97063.66;;;33.46;29.90
17209;BME280;8720;48.488;9.202;2022-08-01T11:21:00;97064.31;;;33.48;30.33
17209;BME280;8720;48.488;9.202;2022-08-01T11:23:29;97070.25;;;33.43;30.24
17209;BME280;8720;48.488;9.202;2022-08-01T11:26:10;97065.91;;;33.34;30.35
17209;BME280;8720;48.488;9.202;2022-08-01T11:28:38;97063.25;;;33.18;30.31
17209;BME280;8720;48.488;9.202;2022-08-01T11:31:30;97061.25;;;33.12;30.27
17209;BME280;8720;48.488;9.202;2022-08-01T11:34:00;97066.84;;;33.11;31.05
17209;BME280;8720;48.488;9.202;2022-08-01T11:36:28;97054.66;;;33.07;30.44
17209;BME280;8720;48.488;9.202;2022-08-01T11:39:17;97057.84;;;33.10;30.77
17209;BME280;8720;48.488;9.202;2022-08-01T11:41:47;97052.13;;;33.05;30.44
17209;BME280;8720;48.488;9.202;2022-08-01T11:44:21;97058.72;;;33.02;30.26
17209;BME280;8720;48.488;9.202;2022-08-01T11:46:58;97054.31;;;33.01;30.44
17209;BME280;8720;48.488;9.202;2022-08-01T11:49:45;97056.00;;;32.94;30.04
17209;BME280;8720;48.488;9.202;2022-08-01T11:52:16;97050.75;;;32.93;30.58
17209;BME280;8720;48.488;9.202;2022-08-01T11:54:48;97055.84;;;32.96;30.85
17209;BME280;8720;48.488;9.202;2022-08-01T11:57:20;97046.19;;;32.93;30.86
17209;BME280;8720;48.488;9.202;2022-08-01T11:59:49;97046.72;;;32.89;30.77
17209;BME280;8720;48.488;9.202;2022-08-01T12:02:20;97054.19;;;32.79;30.96
17209;BME280;8720;48.488;9.202;2022-08-01T12:04:54;97054.56;;;32.68;30.47
17209;BME280;8720;48.488;9.202;2022-08-01T12:07:24;97051.34;;;32.56;31.16
17209;BME280;8720;48.488;9.202;2022-08-01T12:10:03;97051.53;;;32.47;31.00
17209;BME280;8720;48.488;9.202;2022-08-01T12:12:32;97048.63;;;32.40;31.45
17209;BME280;8720;48.488;9.202;2022-08-01T12:15:03;97048.47;;;32.34;31.15
17209;BME280;8720;48.488;9.202;2022-08-01T12:17:33;97045.59;;;32.27;31.33
17209;BME280;8720;48.488;9.202;2022-08-01T12:20:06;97045.28;;;32.14;31.74
17209;BME280;8720;48.488;9.202;2022-08-01T12:22:34;97042.22;;;32.01;31.73
17209;BME280;8720;48.488;9.202;2022-08-01T12:25:13;97043.84;;;31.86;31.88
17209;BME280;8720;48.488;9.202;2022-08-01T12:27:44;97034.72;;;31.79;32.56
17209;BME280;8720;48.488;9.202;2022-08-01T12:30:15;97046.38;;;31.71;32.67
17209;BME280;8720;48.488;9.202;2022-08-01T12:32:46;97038.44;;;31.70;32.52
17209;BME280;8720;48.488;9.202;2022-08-01T12:35:17;97042.00;;;31.70;32.71
17209;BME280;8720;48.488;9.202;2022-08-01T12:37:48;97031.81;;;31.72;32.82
17209;BME280;8720;48.488;9.202;2022-08-01T12:40:17;97030.84;;;31.81;32.69
17209;BME280;8720;48.488;9.202;2022-08-01T12:42:48;97018.66;;;31.77;32.94
17209;BME280;8720;48.488;9.202;2022-08-01T12:45:19;97035.59;;;31.87;33.07
17209;BME280;8720;48.488;9.202;2022-08-01T12:47:47;97024.59;;;31.89;33.04
17209;BME280;8720;48.488;9.202;2022-08-01T12:50:21;97031.56;;;31.91;33.05
17209;BME280;8720;48.488;9.202;2022-08-01T12:52:49;97023.44;;;31.91;32.95
17209;BME280;8720;48.488;9.202;2022-08-01T12:55:19;97018.53;;;31.95;32.87
17209;BME280;8720;48.488;9.202;2022-08-01T12:57:49;97017.00;;;32.00;32.91
17209;BME280;8720;48.488;9.202;2022-08-01T13:00:22;97018.00;;;32.07;32.74
17209;BME280;8720;48.488;9.202;2022-08-01T13:03:00;97021.56;;;32.08;32.78
17209;BME280;8720;48.488;9.202;2022-08-01T13:05:42;97019.88;;;32.07;32.29
17209;BME280;8720;48.488;9.202;2022-08-01T13:08:11;97009.56;;;32.02;32.60
17209;BME280;8720;48.488;9.202;2022-08-01T13:10:40;97016.47;;;32.13;32.84
17209;BME280;8720;48.488;9.202;2022-08-01T13:13:08;97008.72;;;32.18;32.42
17209;BME280;8720;48.488;9.202;2022-08-01T13:15:38;97007.00;;;32.25;32.54
17209;BME280;8720;48.488;9.202;2022-08-01T13:18:25;97016.47;;;32.29;32.24
17209;BME280;8720;48.488;9.202;2022-08-01T13:24:03;97003.63;;;32.31;32.16
17209;BME280;8720;48.488;9.202;2022-08-01T13:26:44;97002.06;;;32.37;32.22
17209;BME280;8720;48.488;9.202;2022-08-01T13:29:15;97006.81;;;32.43;32.28
17209;BME280;8720;48.488;9.202;2022-08-01T13:31:43;96997.34;;;32.47;31.88
17209;BME280;8720;48.488;9.202;2022-08-01T13:34:11;96989.06;;;32.48;32.18